Time;durP1;ratioP1;P1;durP2;ratioP2;P2;SDS_P1;SDS_P2;PMS_P1;PMS_P2;Temp;Humidity;BMP_temperature;BMP_pressure;BME280_temperature;BME280_humidity;BME280_pressure;Samples;Min_cycle;Max_cycle;Signal;HPM_P1;HPM_P2
2023/08/21 00:01:02;;;;;;;2.17;2.05;;;;;;;;;;4977570;28;20023;-76
2023/08/21 00:03:29;;;;;;;2.03;1.92;;;;;;;;;;4976545;28;20022;-76
2023/08/21 00:05:55;;;;;;;2.38;2.28;;;;;;;;;;4986039;28;20050;-76
2023/08/21 00:08:21;;;;;;;2.40;2.30;;;;;;;;;;4958098;28;20027;-75
2023/08/21 00:10:47;;;;;;;2.22;2.13;;;;;;;;;;4977260;28;20022;-76
2023/08/21 00:13:14;;;;;;;2.60;2.40;;;;;;;;;;4948963;28;20035;-76
2023/08/21 00:15:40;;;;;;;2.10;2.00;;;;;;;;;;4973726;28;20023;-76
2023/08/21 00:18:06;;;;;;;2.22;2.13;;;;;;;;;;4973896;28;20062;-76
2023/08/21 00:20:32;;;;;;;2.80;2.60;;;;;;;;;;4973275;28;20121;-76
2023/08/21 00:22:58;;;;;;;2.20;2.10;;;;;;;;;;4956386;28;20366;-76
2023/08/21 00:25:25;;;;;;;2.28;2.17;;;;;;;;;;4973196;28;20358;-76
2023/08/21 00:27:51;;;;;;;2.63;2.42;;;;;;;;;;4973884;28;20022;-76
2023/08/21 00:30:17;;;;;;;2.80;2.60;;;;;;;;;;4973736;28;20027;-76
2023/08/21 00:32:43;;;;;;;2.25;2.15;;;;;;;;;;4977305;28;20026;-76
2023/08/21 00:35:09;;;;;;;2.72;2.53;;;;;;;;;;4977792;28;20073;-77
2023/08/21 00:37:35;;;;;;;2.63;2.53;;;;;;;;;;4956387;28;20401;-76
2023/08/21 00:40:01;;;;;;;2.75;2.55;;;;;;;;;;4974203;28;20438;-75
2023/08/21 00:42:28;;;;;;;3.03;2.83;;;;;;;;;;4956138;28;20026;-76
2023/08/21 00:44:54;;;;;;;2.75;2.55;;;;;;;;;;4974033;28;20041;-76
2023/08/21 00:47:20;;;;;;;2.95;2.75;;;;;;;;;;4974194;28;20038;-76
2023/08/21 00:49:46;;;;;;;2.80;2.60;;;;;;;;;;4974050;28;20022;-75
2023/08/21 00:52:15;;;;;;;2.42;2.33;;;;;;;;;;4974330;28;20542;-76
2023/08/21 00:54:41;;;;;;;2.90;2.70;;;;;;;;;;4956458;28;20023;-76
2023/08/21 00:57:07;;;;;;;2.97;2.78;;;;;;;;;;4973903;28;20057;-77
2023/08/21 00:59:34;;;;;;;2.72;2.53;;;;;;;;;;4973530;28;20038;-76
2023/08/21 01:02:00;;;;;;;2.17;2.08;;;;;;;;;;4973939;28;20367;-76
2023/08/21 01:04:26;;;;;;;2.35;2.20;;;;;;;;;;4955745;28;20550;-76
2023/08/21 01:06:52;;;;;;;2.65;2.55;;;;;;;;;;4973730;28;20062;-75
2023/08/21 01:09:27;;;;;;;2.85;2.65;;;;;;;;;;4973686;28;20098;-76
2023/08/21 01:12:10;;;;;;;3.67;3.40;;;;;;;;;;4973577;28;20018;-76
2023/08/21 01:14:39;;;;;;;2.80;2.60;;;;;;;;;;4973194;28;20478;-76
2023/08/21 01:17:05;;;;;;;2.42;2.33;;;;;;;;;;4973022;28;20029;-76
2023/08/21 01:19:36;;;;;;;3.15;2.95;;;;;;;;;;4973167;28;20438;-76
2023/08/21 01:22:03;;;;;;;2.97;2.78;;;;;;;;;;4956386;28;20031;-76
2023/08/21 01:24:29;;;;;;;3.20;3.00;;;;;;;;;;4973423;28;20019;-76
2023/08/21 01:26:55;;;;;;;3.13;2.92;;;;;;;;;;4973960;28;20516;-76
2023/08/21 01:29:21;;;;;;;2.90;2.70;;;;;;;;;;4972887;28;20050;-76
2023/08/21 01:31:52;;;;;;;3.60;3.33;;;;;;;;;;4965968;28;20034;-76
2023/08/21 01:34:18;;;;;;;3.00;2.80;;;;;;;;;;4973535;28;20125;-76
2023/08/21 01:36:44;;;;;;;3.03;2.83;;;;;;;;;;4973565;28;20027;-77
2023/08/21 01:39:10;;;;;;;3.33;3.10;;;;;;;;;;4973546;28;20485;-76
2023/08/21 01:41:36;;;;;;;3.30;3.10;;;;;;;;;;4955624;28;20027;-77
2023/08/21 01:44:02;;;;;;;3.40;3.20;;;;;;;;;;4973095;28;20517;-76
2023/08/21 01:46:28;;;;;;;3.08;2.88;;;;;;;;;;4976489;28;20030;-76
2023/08/21 01:48:55;;;;;;;2.72;2.63;;;;;;;;;;4982394;28;20047;-76
2023/08/21 01:51:21;;;;;;;3.00;2.80;;;;;;;;;;4982960;28;20022;-75
2023/08/21 01:53:47;;;;;;;3.20;3.00;;;;;;;;;;4982526;28;20050;-76
2023/08/21 01:56:13;;;;;;;3.08;2.88;;;;;;;;;;4977992;28;20080;-75
2023/08/21 01:58:39;;;;;;;3.00;2.80;;;;;;;;;;4976868;28;20023;-76
2023/08/21 02:01:05;;;;;;;3.00;2.80;;;;;;;;;;4983029;28;20161;-77
2023/08/21 02:03:31;;;;;;;2.65;2.50;;;;;;;;;;4987213;28;20034;-76
2023/08/21 02:06:00;;;;;;;2.75;2.55;;;;;;;;;;4977806;28;20015;-75
2023/08/21 02:08:28;;;;;;;2.50;2.40;;;;;;;;;;4978626;28;20031;-76
2023/08/21 02:10:54;;;;;;;2.38;2.28;;;;;;;;;;4960267;28;20034;-75
2023/08/21 02:13:20;;;;;;;2.60;2.50;;;;;;;;;;4978556;28;20385;-75
2023/08/21 02:15:46;;;;;;;2.95;2.75;;;;;;;;;;4972176;28;20027;-76
2023/08/21 02:18:12;;;;;;;2.67;2.50;;;;;;;;;;4986256;28;20077;-76
2023/08/21 02:20:41;;;;;;;2.90;2.70;;;;;;;;;;4995344;28;20106;-75
2023/08/21 02:23:08;;;;;;;2.40;2.30;;;;;;;;;;4977660;28;20030;-76
2023/08/21 02:25:34;;;;;;;2.63;2.42;;;;;;;;;;4980288;28;20022;-75
2023/08/21 02:28:03;;;;;;;2.50;2.30;;;;;;;;;;4973590;28;20027;-75
2023/08/21 02:30:30;;;;;;;2.30;2.20;;;;;;;;;;4976319;28;20073;-76
2023/08/21 02:32:56;;;;;;;2.63;2.42;;;;;;;;;;4975226;28;20023;-77
2023/08/21 02:35:22;;;;;;;2.25;2.15;;;;;;;;;;4976226;28;20026;-75
2023/08/21 02:37:48;;;;;;;2.38;2.28;;;;;;;;;;4976267;28;20019;-76
2023/08/21 02:40:14;;;;;;;2.33;2.17;;;;;;;;;;4976084;28;20023;-76
2023/08/21 02:42:40;;;;;;;1.92;1.83;;;;;;;;;;4951963;28;20054;-77
2023/08/21 02:45:09;;;;;;;2.45;2.35;;;;;;;;;;4975785;28;20098;-76
2023/08/21 02:47:44;;;;;;;2.40;2.30;;;;;;;;;;4977209;28;20189;-75
2023/08/21 02:50:11;;;;;;;1.92;1.83;;;;;;;;;;4978068;28;20058;-76
2023/08/21 02:52:37;;;;;;;2.47;2.38;;;;;;;;;;4992458;28;20035;-76
2023/08/21 02:55:04;;;;;;;2.60;2.42;;;;;;;;;;4988645;28;20031;-76
2023/08/21 02:57:33;;;;;;;2.22;2.13;;;;;;;;;;4970279;28;20026;-76
2023/08/21 02:59:59;;;;;;;2.60;2.40;;;;;;;;;;4986678;28;20501;-77
2023/08/21 03:02:25;;;;;;;2.92;2.72;;;;;;;;;;4977569;28;20038;-78
2023/08/21 03:04:51;;;;;;;2.90;2.70;;;;;;;;;;4980280;28;20033;-76
2023/08/21 03:07:18;;;;;;;2.55;2.40;;;;;;;;;;4975721;28;20026;-77
2023/08/21 03:09:48;;;;;;;3.00;2.80;;;;;;;;;;4976719;28;20545;-78
2023/08/21 03:12:14;;;;;;;2.40;2.30;;;;;;;;;;4975238;28;20093;-75
2023/08/21 03:14:43;;;;;;;2.80;2.60;;;;;;;;;;4975623;28;20023;-78
2023/08/21 03:17:09;;;;;;;3.17;2.97;;;;;;;;;;4975479;28;20417;-76
2023/08/21 03:19:35;;;;;;;2.92;2.72;;;;;;;;;;4974911;28;20453;-76
2023/08/21 03:22:01;;;;;;;2.97;2.78;;;;;;;;;;4975815;28;20426;-79
2023/08/21 03:24:27;;;;;;;2.75;2.55;;;;;;;;;;4974574;28;20034;-75
2023/08/21 03:26:53;;;;;;;2.75;2.55;;;;;;;;;;4974849;28;20054;-76
2023/08/21 03:29:19;;;;;;;2.88;2.67;;;;;;;;;;4974778;28;20065;-75
2023/08/21 03:31:47;;;;;;;3.53;3.22;;;;;;;;;;4977502;28;20031;-75
2023/08/21 03:34:13;;;;;;;3.33;3.13;;;;;;;;;;4972339;28;20035;-75
2023/08/21 03:36:39;;;;;;;3.63;3.33;;;;;;;;;;4973195;28;20501;-75
2023/08/21 03:39:05;;;;;;;3.38;3.17;;;;;;;;;;4975173;28;20136;-76
2023/08/21 03:41:32;;;;;;;3.75;3.30;;;;;;;;;;4974699;28;20026;-76
2023/08/21 03:43:58;;;;;;;4.10;3.70;;;;;;;;;;4974758;28;20069;-75
2023/08/21 03:46:24;;;;;;;3.97;3.67;;;;;;;;;;4975159;28;20125;-76
2023/08/21 03:48:50;;;;;;;3.70;3.40;;;;;;;;;;4965844;28;20470;-74
2023/08/21 03:51:17;;;;;;;3.78;3.50;;;;;;;;;;4970733;28;20409;-77
2023/08/21 03:53:43;;;;;;;3.80;3.50;;;;;;;;;;4957274;28;20046;-76
2023/08/21 03:56:09;;;;;;;3.42;3.22;;;;;;;;;;4975543;28;20506;-76
2023/08/21 03:58:35;;;;;;;3.15;2.95;;;;;;;;;;4975440;28;20093;-75
2023/08/21 04:01:02;;;;;;;3.50;3.30;;;;;;;;;;4974826;28;20026;-75
2023/08/21 04:03:28;;;;;;;3.60;3.30;;;;;;;;;;4974466;28;20046;-75
2023/08/21 04:05:56;;;;;;;2.90;2.70;;;;;;;;;;4970747;28;20066;-75
2023/08/21 04:08:22;;;;;;;3.00;2.80;;;;;;;;;;4975418;28;20023;-75
2023/08/21 04:10:48;;;;;;;3.00;2.80;;;;;;;;;;4974639;28;20030;-75
2023/08/21 04:13:14;;;;;;;3.10;2.90;;;;;;;;;;4957071;28;20038;-75
2023/08/21 04:15:44;;;;;;;3.10;2.90;;;;;;;;;;4975023;28;20031;-76
2023/08/21 04:18:11;;;;;;;2.95;2.75;;;;;;;;;;4975696;28;20095;-76
2023/08/21 04:20:37;;;;;;;2.70;2.60;;;;;;;;;;4957459;28;20035;-75
2023/08/21 04:23:03;;;;;;;2.85;2.65;;;;;;;;;;4965304;28;20038;-75
2023/08/21 04:25:29;;;;;;;2.70;2.50;;;;;;;;;;4955811;28;20019;-75
2023/08/21 04:27:56;;;;;;;2.90;2.70;;;;;;;;;;4974333;28;20015;-75
2023/08/21 04:30:22;;;;;;;2.97;2.78;;;;;;;;;;4957120;28;20023;-76
2023/08/21 04:32:48;;;;;;;2.42;2.33;;;;;;;;;;4976736;28;20014;-76
2023/08/21 04:35:15;;;;;;;2.83;2.63;;;;;;;;;;4961566;28;20042;-77
2023/08/21 04:37:44;;;;;;;2.33;2.22;;;;;;;;;;4973995;28;20022;-76
2023/08/21 04:40:11;;;;;;;2.85;2.55;;;;;;;;;;4973436;28;20042;-76
2023/08/21 04:42:37;;;;;;;2.92;2.72;;;;;;;;;;4973448;28;20462;-75
2023/08/21 04:45:04;;;;;;;2.88;2.67;;;;;;;;;;4973475;28;20397;-75
2023/08/21 04:47:30;;;;;;;2.72;2.53;;;;;;;;;;4973805;28;20019;-74
2023/08/21 04:49:57;;;;;;;3.15;2.95;;;;;;;;;;4973836;28;20134;-76
2023/08/21 04:52:23;;;;;;;2.67;2.47;;;;;;;;;;4956284;28;20027;-75
2023/08/21 04:54:49;;;;;;;3.13;2.92;;;;;;;;;;4973316;28;20478;-75
2023/08/21 04:57:16;;;;;;;2.60;2.40;;;;;;;;;;4973625;28;20537;-75
2023/08/21 04:59:43;;;;;;;2.80;2.65;;;;;;;;;;4973474;28;20019;-75
2023/08/21 05:02:09;;;;;;;2.90;2.70;;;;;;;;;;4977934;28;20022;-75
2023/08/21 05:04:35;;;;;;;2.97;2.78;;;;;;;;;;4997232;28;20026;-75
2023/08/21 05:07:01;;;;;;;2.92;2.72;;;;;;;;;;4997838;28;20026;-76
2023/08/21 05:09:27;;;;;;;3.55;3.35;;;;;;;;;;4978632;28;20469;-75
2023/08/21 05:11:54;;;;;;;3.30;3.00;;;;;;;;;;4977196;28;20459;-75
2023/08/21 05:14:20;;;;;;;3.65;3.45;;;;;;;;;;4956453;28;20410;-76
2023/08/21 05:16:47;;;;;;;3.35;3.10;;;;;;;;;;4974333;28;20030;-75
2023/08/21 05:19:13;;;;;;;3.83;3.42;;;;;;;;;;4975428;28;20035;-76
2023/08/21 05:21:39;;;;;;;4.30;4.00;;;;;;;;;;4988432;28;20027;-75
2023/08/21 05:24:05;;;;;;;3.85;3.50;;;;;;;;;;4989287;28;20030;-75
2023/08/21 05:26:31;;;;;;;3.90;3.60;;;;;;;;;;4981058;28;20026;-75
2023/08/21 05:28:57;;;;;;;3.33;3.13;;;;;;;;;;4967865;28;20050;-75
2023/08/21 05:31:23;;;;;;;3.55;3.25;;;;;;;;;;4967631;28;20482;-75
2023/08/21 05:33:49;;;;;;;3.83;3.53;;;;;;;;;;4990494;28;20030;-75
2023/08/21 05:36:15;;;;;;;4.20;3.80;;;;;;;;;;4977078;28;20046;-75
2023/08/21 05:38:41;;;;;;;3.42;3.22;;;;;;;;;;4974427;28;20031;-75
2023/08/21 05:41:07;;;;;;;4.32;3.92;;;;;;;;;;4974471;28;20022;-74
2023/08/21 05:43:37;;;;;;;4.18;3.78;;;;;;;;;;4981483;28;20015;-75
2023/08/21 05:46:06;;;;;;;3.85;3.55;;;;;;;;;;4984778;28;20038;-74
2023/08/21 05:48:32;;;;;;;3.75;3.45;;;;;;;;;;4981555;28;20101;-75
2023/08/21 05:50:58;;;;;;;3.53;3.22;;;;;;;;;;4974792;28;20023;-76
2023/08/21 05:53:24;;;;;;;3.85;3.55;;;;;;;;;;4980951;28;20026;-75
2023/08/21 05:55:50;;;;;;;3.38;3.17;;;;;;;;;;4982523;28;20027;-75
2023/08/21 05:58:16;;;;;;;4.43;4.03;;;;;;;;;;4974826;28;20085;-75
2023/08/21 06:00:44;;;;;;;4.35;3.95;;;;;;;;;;4976177;28;20441;-76
2023/08/21 06:03:10;;;;;;;6.07;4.32;;;;;;;;;;4976034;28;20469;-75
2023/08/21 06:05:36;;;;;;;4.03;3.72;;;;;;;;;;4993630;28;20027;-74
2023/08/21 06:08:02;;;;;;;4.18;3.88;;;;;;;;;;4976549;28;20018;-75
2023/08/21 06:10:28;;;;;;;4.15;3.75;;;;;;;;;;4994072;28;20041;-75
2023/08/21 06:12:55;;;;;;;3.67;3.22;;;;;;;;;;4994278;28;20023;-75
2023/08/21 06:15:22;;;;;;;3.75;3.45;;;;;;;;;;4990722;28;20053;-74
2023/08/21 06:17:48;;;;;;;3.90;3.60;;;;;;;;;;4983719;28;20030;-74
2023/08/21 06:20:14;;;;;;;4.45;3.85;;;;;;;;;;4974216;28;20038;-74
2023/08/21 06:22:40;;;;;;;4.00;3.70;;;;;;;;;;4974443;28;20118;-74
2023/08/21 06:25:07;;;;;;;3.83;3.53;;;;;;;;;;4974598;28;20054;-75
2023/08/21 06:27:33;;;;;;;4.22;3.83;;;;;;;;;;4976400;28;20053;-75
2023/08/21 06:29:59;;;;;;;3.28;3.08;;;;;;;;;;4979530;28;20023;-74
2023/08/21 06:32:27;;;;;;;4.40;4.10;;;;;;;;;;4990684;28;20035;-75
2023/08/21 06:34:53;;;;;;;3.50;3.20;;;;;;;;;;4978757;28;20033;-74
2023/08/21 06:37:19;;;;;;;3.03;2.83;;;;;;;;;;4961547;28;20046;-75
2023/08/21 06:39:45;;;;;;;2.72;2.53;;;;;;;;;;4978372;28;20029;-76
2023/08/21 06:42:16;;;;;;;3.45;3.15;;;;;;;;;;4978423;28;20018;-74
2023/08/21 06:44:42;;;;;;;2.85;2.65;;;;;;;;;;4978937;28;20029;-74
2023/08/21 06:47:08;;;;;;;3.72;2.92;;;;;;;;;;4977983;28;20050;-74
2023/08/21 06:49:34;;;;;;;3.63;3.33;;;;;;;;;;4977098;28;20023;-75
2023/08/21 06:52:04;;;;;;;2.88;2.67;;;;;;;;;;4960099;28;20093;-76
2023/08/21 06:54:30;;;;;;;3.55;3.25;;;;;;;;;;4977671;28;20034;-74
2023/08/21 06:56:56;;;;;;;3.08;2.88;;;;;;;;;;4964691;28;20118;-75
2023/08/21 06:59:23;;;;;;;3.42;3.13;;;;;;;;;;4985387;28;20038;-76
2023/08/21 07:01:50;;;;;;;3.45;3.22;;;;;;;;;;4974446;28;20050;-78
2023/08/21 07:04:17;;;;;;;3.65;3.35;;;;;;;;;;4987419;28;20019;-79
2023/08/21 07:06:44;;;;;;;4.00;3.70;;;;;;;;;;4980393;28;20045;-79
2023/08/21 07:09:10;;;;;;;3.78;3.47;;;;;;;;;;4976173;28;20019;-78
2023/08/21 07:11:36;;;;;;;3.90;3.60;;;;;;;;;;4978573;28;20367;-78
2023/08/21 07:14:03;;;;;;;3.50;3.20;;;;;;;;;;4978069;28;20087;-78
2023/08/21 07:16:29;;;;;;;4.65;4.25;;;;;;;;;;4977241;28;20113;-78
2023/08/21 07:18:56;;;;;;;5.95;5.45;;;;;;;;;;4979633;28;20038;-79
2023/08/21 07:21:22;;;;;;;6.63;6.03;;;;;;;;;;4960746;28;20034;-79
2023/08/21 07:23:48;;;;;;;5.80;5.25;;;;;;;;;;4977390;28;20027;-79
2023/08/21 07:26:14;;;;;;;7.65;5.78;;;;;;;;;;4978481;28;20031;-78
2023/08/21 07:28:40;;;;;;;5.38;4.97;;;;;;;;;;4978168;28;20023;-78
2023/08/21 07:31:09;;;;;;;5.05;4.65;;;;;;;;;;4989723;28;20026;-78
2023/08/21 07:33:35;;;;;;;4.88;4.57;;;;;;;;;;4997812;28;20453;-79
2023/08/21 07:36:03;;;;;;;6.13;5.28;;;;;;;;;;4997746;28;20077;-78
2023/08/21 07:38:29;;;;;;;4.72;4.43;;;;;;;;;;4997865;28;20026;-78
2023/08/21 07:41:10;;;;;;;4.03;3.75;;;;;;;;;;4985131;28;20045;-79
2023/08/21 07:43:40;;;;;;;4.18;3.88;;;;;;;;;;4960116;28;20045;-79
2023/08/21 07:46:07;;;;;;;4.55;4.15;;;;;;;;;;4977745;28;20524;-78
2023/08/21 07:48:34;;;;;;;4.22;3.92;;;;;;;;;;4960368;28;20026;-80
2023/08/21 07:51:00;;;;;;;4.10;3.80;;;;;;;;;;4977925;28;20038;-78
2023/08/21 07:53:27;;;;;;;4.50;4.20;;;;;;;;;;4977973;28;20023;-78
2023/08/21 07:55:53;;;;;;;5.00;4.55;;;;;;;;;;4981789;28;20054;-78
2023/08/21 07:58:22;;;;;;;4.50;4.13;;;;;;;;;;4980018;28;20035;-79
2023/08/21 08:00:48;;;;;;;4.13;3.83;;;;;;;;;;4981369;28;20027;-78
2023/08/21 08:03:15;;;;;;;4.82;4.03;;;;;;;;;;4997166;28;20027;-78
2023/08/21 08:05:42;;;;;;;4.50;4.20;;;;;;;;;;4981295;28;20053;-79
2023/08/21 08:08:08;;;;;;;4.82;4.43;;;;;;;;;;4997392;28;20041;-76
2023/08/21 08:10:37;;;;;;;4.82;4.53;;;;;;;;;;4996713;28;20033;-77
2023/08/21 08:13:03;;;;;;;4.50;4.20;;;;;;;;;;4971191;28;20038;-78
2023/08/21 08:15:29;;;;;;;4.28;3.97;;;;;;;;;;4979867;28;20023;-78
2023/08/21 08:17:55;;;;;;;4.97;4.50;;;;;;;;;;4977444;28;20426;-79
2023/08/21 08:20:22;;;;;;;5.00;4.63;;;;;;;;;;4978800;28;20062;-79
2023/08/21 08:22:48;;;;;;;5.13;4.72;;;;;;;;;;4978793;28;20386;-80
2023/08/21 08:25:14;;;;;;;5.10;4.50;;;;;;;;;;4977382;28;20038;-79
2023/08/21 08:27:42;;;;;;;5.13;4.72;;;;;;;;;;4977853;28;20031;-79
2023/08/21 08:30:09;;;;;;;4.90;4.50;;;;;;;;;;4960018;28;20054;-78
2023/08/21 08:32:40;;;;;;;4.35;4.05;;;;;;;;;;4976582;28;20034;-78
2023/08/21 08:35:07;;;;;;;4.00;3.70;;;;;;;;;;4976927;28;20050;-78
2023/08/21 08:37:33;;;;;;;4.90;4.50;;;;;;;;;;4987094;28;20022;-78
2023/08/21 08:39:59;;;;;;;4.68;4.28;;;;;;;;;;4985845;28;20053;-79
2023/08/21 08:42:25;;;;;;;5.20;4.75;;;;;;;;;;4977774;28;20035;-79
2023/08/21 08:44:55;;;;;;;5.97;5.35;;;;;;;;;;4983432;28;20038;-78
2023/08/21 08:47:21;;;;;;;5.55;5.15;;;;;;;;;;4985100;28;20034;-79
2023/08/21 08:49:51;;;;;;;5.80;5.22;;;;;;;;;;4980601;28;20061;-79
2023/08/21 08:52:18;;;;;;;5.30;4.93;;;;;;;;;;4980331;28;20030;-80
2023/08/21 08:54:45;;;;;;;6.10;5.50;;;;;;;;;;4980422;28;20065;-80
2023/08/21 08:57:11;;;;;;;5.20;4.80;;;;;;;;;;4980975;28;20035;-79
2023/08/21 08:59:37;;;;;;;5.82;5.32;;;;;;;;;;4960971;28;20093;-80
2023/08/21 09:02:03;;;;;;;4.43;4.13;;;;;;;;;;4976898;28;20038;-79
2023/08/21 09:04:29;;;;;;;6.50;5.50;;;;;;;;;;4976400;28;20035;-78
2023/08/21 09:07:08;;;;;;;5.80;5.32;;;;;;;;;;4976792;28;20026;-80
2023/08/21 09:09:38;;;;;;;5.65;5.20;;;;;;;;;;4975496;28;20031;-79
2023/08/21 09:12:09;;;;;;;6.43;5.35;;;;;;;;;;4976456;28;20375;-77
2023/08/21 09:14:36;;;;;;;5.00;4.70;;;;;;;;;;4975266;28;20031;-77
2023/08/21 09:17:05;;;;;;;5.18;4.88;;;;;;;;;;4975537;28;20031;-78
2023/08/21 09:19:31;;;;;;;4.97;4.60;;;;;;;;;;4976192;28;20063;-78
2023/08/21 09:21:57;;;;;;;5.10;4.68;;;;;;;;;;4976317;28;20544;-80
2023/08/21 09:24:24;;;;;;;5.30;4.90;;;;;;;;;;4975236;28;20023;-80
2023/08/21 09:26:50;;;;;;;5.10;4.75;;;;;;;;;;4988526;28;20011;-78
2023/08/21 09:29:16;;;;;;;5.28;4.88;;;;;;;;;;4995765;28;20022;-81
2023/08/21 09:31:45;;;;;;;5.28;4.88;;;;;;;;;;4963510;28;20031;-80
2023/08/21 09:34:11;;;;;;;5.60;5.20;;;;;;;;;;4975892;28;20165;-80
2023/08/21 09:36:39;;;;;;;5.53;5.03;;;;;;;;;;4975216;28;20033;-80
2023/08/21 09:39:06;;;;;;;5.60;5.20;;;;;;;;;;4977060;28;20581;-80
2023/08/21 09:41:32;;;;;;;5.90;5.50;;;;;;;;;;4958746;28;20031;-79
2023/08/21 09:44:03;;;;;;;6.80;5.32;;;;;;;;;;4976071;28;20057;-79
2023/08/21 09:46:29;;;;;;;;;;;;;;;;;;4975044;28;20516;-80
2023/08/21 09:48:56;;;;;;;5.50;5.00;;;;;;;;;;4974789;28;19910;-79
2023/08/21 09:51:22;;;;;;;5.40;5.00;;;;;;;;;;4974779;28;20027;-78
2023/08/21 09:53:51;;;;;;;5.55;5.10;;;;;;;;;;4957109;28;20031;-80
2023/08/21 09:56:19;;;;;;;5.03;4.72;;;;;;;;;;4957395;28;20041;-79
2023/08/21 09:58:48;;;;;;;5.28;4.80;;;;;;;;;;4975366;28;20035;-79
2023/08/21 10:01:15;;;;;;;6.25;5.75;;;;;;;;;;4984738;28;20022;-80
2023/08/21 10:03:47;;;;;;;5.18;4.78;;;;;;;;;;4994305;28;20050;-79
2023/08/21 10:06:17;;;;;;;6.00;5.45;;;;;;;;;;4982672;28;20027;-79
2023/08/21 10:08:45;;;;;;;5.72;5.30;;;;;;;;;;4978386;28;20073;-80
2023/08/21 10:11:12;;;;;;;5.10;4.80;;;;;;;;;;4962731;28;20050;-80
2023/08/21 10:13:39;;;;;;;5.10;4.70;;;;;;;;;;4979706;28;20031;-80
2023/08/21 10:16:06;;;;;;;5.22;4.75;;;;;;;;;;4978755;28;20038;-80
2023/08/21 10:18:33;;;;;;;4.70;4.40;;;;;;;;;;4981698;28;20077;-79
2023/08/21 10:21:13;;;;;;;5.38;3.95;;;;;;;;;;4979794;28;20505;-79
2023/08/21 10:23:40;;;;;;;4.13;3.47;;;;;;;;;;4980076;28;20482;-82
2023/08/21 10:26:07;;;;;;;4.20;3.90;;;;;;;;;;4981644;28;20029;-82
2023/08/21 10:28:52;;;;;;;5.10;4.60;;;;;;;;;;4976129;28;20058;-81
2023/08/21 10:31:29;;;;;;;5.00;4.60;;;;;;;;;;4976496;28;20034;-81
2023/08/21 10:33:55;;;;;;;4.78;4.40;;;;;;;;;;4961850;28;20121;-80
2023/08/21 10:36:40;;;;;;;4.80;4.45;;;;;;;;;;4981282;28;20055;-80
2023/08/21 10:39:19;;;;;;;5.13;4.65;;;;;;;;;;4964106;28;20050;-81
2023/08/21 10:41:57;;;;;;;4.57;4.22;;;;;;;;;;4980761;28;20026;-82
2023/08/21 10:44:42;;;;;;;4.40;4.00;;;;;;;;;;4981661;28;20030;-82
2023/08/21 10:47:15;;;;;;;4.90;4.50;;;;;;;;;;4982429;28;20027;-81
2023/08/21 10:49:41;;;;;;;4.80;4.50;;;;;;;;;;4964045;28;20022;-82
2023/08/21 10:52:09;;;;;;;7.18;4.18;;;;;;;;;;4981401;28;20034;-82
2023/08/21 10:54:45;;;;;;;4.72;4.32;;;;;;;;;;4980839;28;20034;-81
2023/08/21 10:57:11;;;;;;;4.22;3.83;;;;;;;;;;4963812;28;20088;-81
2023/08/21 10:59:37;;;;;;;4.28;3.95;;;;;;;;;;4980050;28;20027;-80
2023/08/21 11:02:03;;;;;;;3.80;3.50;;;;;;;;;;4987724;28;20046;-81
2023/08/21 11:04:29;;;;;;;3.90;3.60;;;;;;;;;;4977629;28;20497;-81
2023/08/21 11:06:56;;;;;;;4.10;3.80;;;;;;;;;;5001581;28;20046;-80
2023/08/21 11:09:23;;;;;;;4.32;4.03;;;;;;;;;;5000806;28;20029;-81
2023/08/21 11:11:49;;;;;;;4.40;4.10;;;;;;;;;;5001346;28;20034;-81
2023/08/21 11:14:15;;;;;;;4.22;3.95;;;;;;;;;;4993705;28;20045;-81
2023/08/21 11:16:41;;;;;;;4.70;4.32;;;;;;;;;;4980418;28;20027;-80
2023/08/21 11:19:07;;;;;;;4.57;4.18;;;;;;;;;;4978903;28;20042;-80
2023/08/21 11:21:34;;;;;;;4.40;4.05;;;;;;;;;;4979064;28;20090;-80
2023/08/21 11:24:00;;;;;;;4.40;4.10;;;;;;;;;;4980070;28;20027;-79
2023/08/21 11:26:26;;;;;;;4.40;3.90;;;;;;;;;;4988371;28;20050;-79
2023/08/21 11:28:52;;;;;;;4.80;4.40;;;;;;;;;;4993673;28;20042;-80
2023/08/21 11:31:18;;;;;;;4.55;4.25;;;;;;;;;;4989819;28;20018;-81
2023/08/21 11:33:50;;;;;;;4.72;4.40;;;;;;;;;;4984395;28;20035;-80
2023/08/21 11:36:16;;;;;;;4.45;4.15;;;;;;;;;;4996353;28;20030;-79
2023/08/21 11:38:42;;;;;;;4.45;4.15;;;;;;;;;;4979215;28;20504;-80
2023/08/21 11:41:08;;;;;;;6.05;4.50;;;;;;;;;;4987485;28;20030;-80
2023/08/21 11:43:38;;;;;;;5.00;4.60;;;;;;;;;;4983321;28;20023;-79
2023/08/21 11:46:05;;;;;;;4.97;4.57;;;;;;;;;;4980396;28;20019;-79
2023/08/21 11:48:34;;;;;;;4.50;4.20;;;;;;;;;;4981944;28;20066;-81
2023/08/21 11:51:00;;;;;;;4.93;4.53;;;;;;;;;;4980799;28;20058;-79
2023/08/21 11:53:42;;;;;;;4.43;4.13;;;;;;;;;;4982656;28;20093;-79
2023/08/21 11:56:13;;;;;;;4.93;4.60;;;;;;;;;;4986019;28;20098;-79
2023/08/21 11:58:50;;;;;;;5.07;4.65;;;;;;;;;;4982852;28;20034;-80
2023/08/21 12:01:20;;;;;;;5.25;4.95;;;;;;;;;;4985854;28;20029;-80
2023/08/21 12:03:54;;;;;;;5.97;4.72;;;;;;;;;;4994664;28;20064;-79
2023/08/21 12:06:20;;;;;;;5.30;4.95;;;;;;;;;;5005873;28;20428;-79
2023/08/21 12:08:46;;;;;;;5.13;4.72;;;;;;;;;;4984505;28;20026;-79
2023/08/21 12:11:12;;;;;;;5.78;4.50;;;;;;;;;;4981554;28;20374;-80
2023/08/21 12:13:38;;;;;;;5.03;4.63;;;;;;;;;;4999511;28;20057;-81
2023/08/21 12:16:05;;;;;;;5.63;5.22;;;;;;;;;;5000652;28;20035;-80
2023/08/21 12:18:31;;;;;;;4.75;4.45;;;;;;;;;;4999970;28;20401;-80
2023/08/21 12:20:57;;;;;;;4.70;4.35;;;;;;;;;;4982040;28;20035;-80
2023/08/21 12:23:23;;;;;;;5.03;4.68;;;;;;;;;;4980326;28;20032;-80
2023/08/21 12:25:49;;;;;;;4.68;4.38;;;;;;;;;;4961988;28;20023;-80
2023/08/21 12:28:15;;;;;;;4.60;4.20;;;;;;;;;;4978722;28;20038;-81
2023/08/21 12:30:41;;;;;;;5.00;4.50;;;;;;;;;;4978486;28;20089;-80
2023/08/21 12:33:08;;;;;;;5.43;4.93;;;;;;;;;;4976212;28;20478;-80
2023/08/21 12:35:34;;;;;;;5.32;4.93;;;;;;;;;;4979069;28;20050;-80
2023/08/21 12:38:05;;;;;;;4.32;4.03;;;;;;;;;;4978834;28;20067;-79
2023/08/21 12:40:31;;;;;;;4.60;4.30;;;;;;;;;;4977551;28;20027;-81
2023/08/21 12:42:57;;;;;;;4.60;4.30;;;;;;;;;;4978373;28;20030;-81
2023/08/21 12:45:24;;;;;;;4.95;4.43;;;;;;;;;;4960086;28;20027;-78
2023/08/21 12:47:50;;;;;;;5.30;4.47;;;;;;;;;;4958594;28;20026;-79
2023/08/21 12:50:16;;;;;;;6.03;4.38;;;;;;;;;;4964623;28;20011;-80
2023/08/21 12:52:42;;;;;;;4.60;4.20;;;;;;;;;;4995354;28;20018;-78
2023/08/21 12:55:08;;;;;;;5.13;4.72;;;;;;;;;;4979845;28;20027;-78
2023/08/21 12:57:34;;;;;;;4.57;4.10;;;;;;;;;;4977299;28;20023;-79
2023/08/21 13:00:00;;;;;;;4.40;4.05;;;;;;;;;;4976248;28;20027;-78
2023/08/21 13:02:27;;;;;;;4.65;4.35;;;;;;;;;;4989263;28;20022;-78
2023/08/21 13:04:53;;;;;;;4.45;4.15;;;;;;;;;;4977098;28;20029;-78
2023/08/21 13:07:19;;;;;;;4.50;4.20;;;;;;;;;;4994903;28;20023;-79
2023/08/21 13:09:45;;;;;;;4.72;4.43;;;;;;;;;;4967353;28;20398;-78
2023/08/21 13:12:11;;;;;;;4.28;3.97;;;;;;;;;;4960602;28;20386;-78
2023/08/21 13:14:38;;;;;;;4.28;4.05;;;;;;;;;;4976826;28;20027;-77
2023/08/21 13:17:04;;;;;;;4.03;3.80;;;;;;;;;;4978159;28;20030;-77
2023/08/21 13:19:30;;;;;;;5.97;4.35;;;;;;;;;;4980132;28;20038;-78
2023/08/21 13:21:56;;;;;;;4.45;4.15;;;;;;;;;;4977493;28;20027;-77
2023/08/21 13:24:22;;;;;;;4.97;4.55;;;;;;;;;;4976644;28;20018;-78
2023/08/21 13:26:48;;;;;;;4.70;4.20;;;;;;;;;;4976839;28;20026;-78
2023/08/21 13:29:14;;;;;;;4.75;4.45;;;;;;;;;;4976086;28;20030;-77
2023/08/21 13:31:40;;;;;;;4.70;4.32;;;;;;;;;;4984398;28;20046;-78
2023/08/21 13:34:06;;;;;;;4.10;3.90;;;;;;;;;;4987331;28;20080;-77
2023/08/21 13:36:32;;;;;;;4.40;4.10;;;;;;;;;;4997065;28;20385;-79
2023/08/21 13:38:59;;;;;;;4.07;3.78;;;;;;;;;;4997985;28;20034;-79
2023/08/21 13:41:25;;;;;;;4.95;4.50;;;;;;;;;;4995610;28;20484;-79
2023/08/21 13:43:51;;;;;;;4.78;4.47;;;;;;;;;;4982172;28;20058;-79
2023/08/21 13:46:17;;;;;;;5.03;4.55;;;;;;;;;;4980871;28;20027;-78
2023/08/21 13:48:43;;;;;;;5.28;4.90;;;;;;;;;;4981334;28;20026;-78
2023/08/21 13:51:09;;;;;;;5.38;4.88;;;;;;;;;;4980227;28;20030;-77
2023/08/21 13:53:35;;;;;;;4.97;4.57;;;;;;;;;;4979957;28;20323;-79
2023/08/21 13:56:01;;;;;;;4.63;4.22;;;;;;;;;;4980726;28;20038;-78
2023/08/21 13:58:28;;;;;;;5.47;5.00;;;;;;;;;;4962321;28;20101;-79
2023/08/21 14:00:55;;;;;;;7.32;4.88;;;;;;;;;;4983398;28;20035;-78
2023/08/21 14:03:21;;;;;;;6.05;5.65;;;;;;;;;;5000227;28;20102;-77
2023/08/21 14:05:47;;;;;;;5.35;4.85;;;;;;;;;;5001353;28;20122;-78
2023/08/21 14:08:13;;;;;;;5.68;5.28;;;;;;;;;;5000575;28;20030;-79
2023/08/21 14:10:39;;;;;;;5.47;5.10;;;;;;;;;;4999294;28;20057;-78
2023/08/21 14:13:07;;;;;;;5.55;5.15;;;;;;;;;;4998559;28;20030;-78
2023/08/21 14:15:34;;;;;;;5.25;4.90;;;;;;;;;;4965806;28;20181;-78
2023/08/21 14:18:00;;;;;;;6.00;5.43;;;;;;;;;;4978276;28;20071;-79
2023/08/21 14:20:26;;;;;;;6.45;5.03;;;;;;;;;;4987940;28;20030;-80
2023/08/21 14:22:52;;;;;;;5.75;5.28;;;;;;;;;;4976017;28;20043;-81
2023/08/21 14:25:18;;;;;;;5.20;4.80;;;;;;;;;;4985749;28;20038;-80
2023/08/21 14:27:44;;;;;;;5.32;4.93;;;;;;;;;;4982466;28;20038;-80
2023/08/21 14:30:10;;;;;;;4.93;4.50;;;;;;;;;;4993204;28;20037;-80
2023/08/21 14:32:37;;;;;;;5.70;5.20;;;;;;;;;;4995043;28;20111;-80
2023/08/21 14:35:03;;;;;;;4.40;4.18;;;;;;;;;;4980808;28;20497;-82
2023/08/21 14:37:29;;;;;;;5.72;5.13;;;;;;;;;;4983557;28;20065;-80
2023/08/21 14:39:55;;;;;;;5.20;4.80;;;;;;;;;;4983667;28;20406;-81
2023/08/21 14:42:22;;;;;;;5.20;4.85;;;;;;;;;;4994095;28;20030;-80